sensor_id;sensor_type;location;lat;lon;timestamp;P1;durP1;ratioP1;P2;durP2;ratioP2
84264;SDS011;74412;45.626;5.108;2024-03-02T00:00:49;3.25;;;3.25;;
84264;SDS011;74412;45.626;5.108;2024-03-02T00:03:16;3.75;;;3.00;;
84264;SDS011;74412;45.626;5.108;2024-03-02T00:05:42;8.50;;;7.75;;
84264;SDS011;74412;45.626;5.108;2024-03-02T00:08:12;7.00;;;6.00;;
84264;SDS011;74412;45.626;5.108;2024-03-02T00:10:44;5.75;;;5.75;;
84264;SDS011;74412;45.626;5.108;2024-03-02T00:13:11;5.25;;;3.50;;
84264;SDS011;74412;45.626;5.108;2024-03-02T00:15:42;3.50;;;3.00;;
84264;SDS011;74412;45.626;5.108;2024-03-02T00:18:16;3.25;;;3.00;;
84264;SDS011;74412;45.626;5.108;2024-03-02T00:20:45;3.25;;;3.25;;
84264;SDS011;74412;45.626;5.108;2024-03-02T00:23:21;2.75;;;2.75;;
84264;SDS011;74412;45.626;5.108;2024-03-02T00:25:49;4.50;;;4.00;;
84264;SDS011;74412;45.626;5.108;2024-03-02T00:28:19;4.75;;;3.75;;
84264;SDS011;74412;45.626;5.108;2024-03-02T00:30:51;3.50;;;3.50;;
84264;SDS011;74412;45.626;5.108;2024-03-02T00:33:21;5.50;;;4.00;;
84264;SDS011;74412;45.626;5.108;2024-03-02T00:35:48;4.25;;;4.00;;
84264;SDS011;74412;45.626;5.108;2024-03-02T00:38:15;3.00;;;3.00;;
84264;SDS011;74412;45.626;5.108;2024-03-02T00:40:44;5.00;;;4.00;;
84264;SDS011;74412;45.626;5.108;2024-03-02T00:46:07;5.00;;;3.00;;
84264;SDS011;74412;45.626;5.108;2024-03-02T00:48:34;4.00;;;4.00;;
84264;SDS011;74412;45.626;5.108;2024-03-02T00:51:04;4.00;;;4.00;;
84264;SDS011;74412;45.626;5.108;2024-03-02T00:53:34;5.00;;;4.25;;
84264;SDS011;74412;45.626;5.108;2024-03-02T00:56:11;6.75;;;5.50;;
84264;SDS011;74412;45.626;5.108;2024-03-02T00:58:42;8.50;;;3.50;;
84264;SDS011;74412;45.626;5.108;2024-03-02T01:01:08;5.00;;;4.00;;
84264;SDS011;74412;45.626;5.108;2024-03-02T01:03:35;5.00;;;4.00;;
84264;SDS011;74412;45.626;5.108;2024-03-02T01:06:03;6.50;;;5.00;;
84264;SDS011;74412;45.626;5.108;2024-03-02T01:08:32;4.75;;;4.75;;
84264;SDS011;74412;45.626;5.108;2024-03-02T01:10:59;5.00;;;5.00;;
84264;SDS011;74412;45.626;5.108;2024-03-02T01:13:27;5.00;;;5.00;;
84264;SDS011;74412;45.626;5.108;2024-03-02T01:15:54;3.00;;;3.00;;
84264;SDS011;74412;45.626;5.108;2024-03-02T01:18:29;5.00;;;4.00;;
84264;SDS011;74412;45.626;5.108;2024-03-02T01:20:56;3.75;;;3.75;;
84264;SDS011;74412;45.626;5.108;2024-03-02T01:23:23;3.75;;;3.75;;
84264;SDS011;74412;45.626;5.108;2024-03-02T01:25:49;4.00;;;4.00;;
84264;SDS011;74412;45.626;5.108;2024-03-02T01:28:17;3.50;;;3.00;;
84264;SDS011;74412;45.626;5.108;2024-03-02T01:30:45;3.25;;;3.00;;
84264;SDS011;74412;45.626;5.108;2024-03-02T01:33:12;4.25;;;4.25;;
84264;SDS011;74412;45.626;5.108;2024-03-02T01:35:38;2.00;;;2.00;;
84264;SDS011;74412;45.626;5.108;2024-03-02T01:38:05;2.00;;;2.00;;
84264;SDS011;74412;45.626;5.108;2024-03-02T01:40:32;2.00;;;2.00;;
84264;SDS011;74412;45.626;5.108;2024-03-02T01:42:59;2.50;;;2.50;;
84264;SDS011;74412;45.626;5.108;2024-03-02T01:45:27;2.75;;;2.50;;
84264;SDS011;74412;45.626;5.108;2024-03-02T01:47:55;2.00;;;2.00;;
84264;SDS011;74412;45.626;5.108;2024-03-02T01:50:26;2.75;;;2.00;;
84264;SDS011;74412;45.626;5.108;2024-03-02T01:52:53;3.25;;;3.25;;
84264;SDS011;74412;45.626;5.108;2024-03-02T01:55:20;3.00;;;3.00;;
84264;SDS011;74412;45.626;5.108;2024-03-02T01:57:56;2.25;;;2.25;;
84264;SDS011;74412;45.626;5.108;2024-03-02T02:00:26;3.50;;;3.00;;
84264;SDS011;74412;45.626;5.108;2024-03-02T02:02:53;1.00;;;1.00;;
84264;SDS011;74412;45.626;5.108;2024-03-02T02:05:21;2.75;;;2.75;;
84264;SDS011;74412;45.626;5.108;2024-03-02T02:07:48;2.25;;;2.00;;
84264;SDS011;74412;45.626;5.108;2024-03-02T02:10:15;4.00;;;2.25;;
84264;SDS011;74412;45.626;5.108;2024-03-02T02:12:42;2.50;;;2.00;;
84264;SDS011;74412;45.626;5.108;2024-03-02T02:15:21;2.00;;;2.00;;
84264;SDS011;74412;45.626;5.108;2024-03-02T02:17:49;1.50;;;1.25;;
84264;SDS011;74412;45.626;5.108;2024-03-02T02:20:15;3.00;;;2.50;;
84264;SDS011;74412;45.626;5.108;2024-03-02T02:23:02;1.00;;;1.00;;
84264;SDS011;74412;45.626;5.108;2024-03-02T02:25:30;1.00;;;1.00;;
84264;SDS011;74412;45.626;5.108;2024-03-02T02:27:57;1.00;;;1.00;;
84264;SDS011;74412;45.626;5.108;2024-03-02T02:30:24;3.50;;;1.50;;
84264;SDS011;74412;45.626;5.108;2024-03-02T02:32:52;1.75;;;1.75;;
84264;SDS011;74412;45.626;5.108;2024-03-02T02:35:18;1.50;;;1.50;;
84264;SDS011;74412;45.626;5.108;2024-03-02T02:37:45;1.00;;;1.00;;
84264;SDS011;74412;45.626;5.108;2024-03-02T02:40:14;3.25;;;1.00;;
84264;SDS011;74412;45.626;5.108;2024-03-02T02:42:44;2.25;;;1.00;;
84264;SDS011;74412;45.626;5.108;2024-03-02T02:45:11;1.00;;;1.00;;
84264;SDS011;74412;45.626;5.108;2024-03-02T02:47:39;2.00;;;2.00;;
84264;SDS011;74412;45.626;5.108;2024-03-02T02:50:07;2.00;;;1.00;;
84264;SDS011;74412;45.626;5.108;2024-03-02T02:52:34;2.00;;;2.00;;
84264;SDS011;74412;45.626;5.108;2024-03-02T02:55:03;1.00;;;1.00;;
84264;SDS011;74412;45.626;5.108;2024-03-02T02:57:32;1.25;;;1.25;;
84264;SDS011;74412;45.626;5.108;2024-03-02T03:00:02;1.00;;;1.00;;
84264;SDS011;74412;45.626;5.108;2024-03-02T03:02:35;1.50;;;1.00;;
84264;SDS011;74412;45.626;5.108;2024-03-02T03:05:02;1.50;;;1.50;;
84264;SDS011;74412;45.626;5.108;2024-03-02T03:07:29;1.00;;;1.00;;
84264;SDS011;74412;45.626;5.108;2024-03-02T03:09:59;1.00;;;1.00;;
84264;SDS011;74412;45.626;5.108;2024-03-02T03:12:25;2.00;;;2.00;;
84264;SDS011;74412;45.626;5.108;2024-03-02T03:14:53;1.00;;;1.00;;
84264;SDS011;74412;45.626;5.108;2024-03-02T03:17:21;1.00;;;1.00;;
84264;SDS011;74412;45.626;5.108;2024-03-02T03:19:47;0.00;;;0.00;;
84264;SDS011;74412;45.626;5.108;2024-03-02T03:22:14;1.00;;;1.00;;
84264;SDS011;74412;45.626;5.108;2024-03-02T03:24:41;1.00;;;1.00;;
84264;SDS011;74412;45.626;5.108;2024-03-02T03:27:08;0.75;;;0.75;;
84264;SDS011;74412;45.626;5.108;2024-03-02T03:29:44;0.50;;;0.50;;
84264;SDS011;74412;45.626;5.108;2024-03-02T03:32:12;0.75;;;0.75;;
84264;SDS011;74412;45.626;5.108;2024-03-02T03:34:39;1.25;;;1.25;;
84264;SDS011;74412;45.626;5.108;2024-03-02T03:37:06;1.00;;;1.00;;
84264;SDS011;74412;45.626;5.108;2024-03-02T03:39:43;0.75;;;0.00;;
84264;SDS011;74412;45.626;5.108;2024-03-02T03:42:09;1.00;;;1.00;;
84264;SDS011;74412;45.626;5.108;2024-03-02T03:44:36;1.00;;;1.00;;
84264;SDS011;74412;45.626;5.108;2024-03-02T03:47:04;1.00;;;1.00;;
84264;SDS011;74412;45.626;5.108;2024-03-02T03:49:32;1.00;;;1.00;;
84264;SDS011;74412;45.626;5.108;2024-03-02T03:51:59;2.25;;;1.00;;
84264;SDS011;74412;45.626;5.108;2024-03-02T03:54:25;1.50;;;1.00;;
84264;SDS011;74412;45.626;5.108;2024-03-02T03:56:55;3.50;;;1.00;;
84264;SDS011;74412;45.626;5.108;2024-03-02T03:59:24;2.00;;;1.00;;
84264;SDS011;74412;45.626;5.108;2024-03-02T04:01:59;2.00;;;0.00;;
84264;SDS011;74412;45.626;5.108;2024-03-02T04:04:25;1.00;;;1.00;;
84264;SDS011;74412;45.626;5.108;2024-03-02T04:06:53;0.00;;;0.00;;
84264;SDS011;74412;45.626;5.108;2024-03-02T04:09:20;0.75;;;0.75;;
84264;SDS011;74412;45.626;5.108;2024-03-02T04:11:47;1.00;;;1.00;;
84264;SDS011;74412;45.626;5.108;2024-03-02T04:14:13;1.25;;;1.25;;
84264;SDS011;74412;45.626;5.108;2024-03-02T04:16:40;1.00;;;1.00;;
84264;SDS011;74412;45.626;5.108;2024-03-02T04:19:06;0.00;;;0.00;;
84264;SDS011;74412;45.626;5.108;2024-03-02T04:21:32;0.25;;;0.00;;
84264;SDS011;74412;45.626;5.108;2024-03-02T04:24:00;2.00;;;1.25;;
84264;SDS011;74412;45.626;5.108;2024-03-02T04:26:27;1.00;;;1.00;;
84264;SDS011;74412;45.626;5.108;2024-03-02T04:28:53;1.00;;;1.00;;
84264;SDS011;74412;45.626;5.108;2024-03-02T04:31:20;1.00;;;1.00;;
84264;SDS011;74412;45.626;5.108;2024-03-02T04:33:47;0.00;;;0.00;;
84264;SDS011;74412;45.626;5.108;2024-03-02T04:36:14;2.25;;;0.50;;
84264;SDS011;74412;45.626;5.108;2024-03-02T04:38:43;1.75;;;1.00;;
84264;SDS011;74412;45.626;5.108;2024-03-02T04:41:11;0.25;;;0.25;;
84264;SDS011;74412;45.626;5.108;2024-03-02T04:43:38;4.50;;;1.00;;
84264;SDS011;74412;45.626;5.108;2024-03-02T04:46:05;1.00;;;1.00;;
84264;SDS011;74412;45.626;5.108;2024-03-02T04:48:32;1.50;;;1.50;;
84264;SDS011;74412;45.626;5.108;2024-03-02T04:50:59;1.00;;;1.00;;
84264;SDS011;74412;45.626;5.108;2024-03-02T04:53:25;0.75;;;0.75;;
84264;SDS011;74412;45.626;5.108;2024-03-02T04:55:55;1.00;;;1.00;;
84264;SDS011;74412;45.626;5.108;2024-03-02T04:58:46;1.00;;;1.00;;
84264;SDS011;74412;45.626;5.108;2024-03-02T05:01:13;1.00;;;1.00;;
84264;SDS011;74412;45.626;5.108;2024-03-02T05:03:49;1.00;;;1.00;;
84264;SDS011;74412;45.626;5.108;2024-03-02T05:06:15;2.50;;;1.75;;
84264;SDS011;74412;45.626;5.108;2024-03-02T05:08:42;1.25;;;1.00;;
84264;SDS011;74412;45.626;5.108;2024-03-02T05:11:09;1.00;;;1.00;;
84264;SDS011;74412;45.626;5.108;2024-03-02T05:13:55;0.75;;;0.75;;
84264;SDS011;74412;45.626;5.108;2024-03-02T05:16:22;2.00;;;0.00;;
84264;SDS011;74412;45.626;5.108;2024-03-02T05:18:48;1.00;;;1.00;;
84264;SDS011;74412;45.626;5.108;2024-03-02T05:21:15;2.25;;;1.00;;
84264;SDS011;74412;45.626;5.108;2024-03-02T05:23:41;1.00;;;0.25;;
84264;SDS011;74412;45.626;5.108;2024-03-02T05:26:09;2.00;;;1.00;;
84264;SDS011;74412;45.626;5.108;2024-03-02T05:28:37;2.00;;;1.00;;
84264;SDS011;74412;45.626;5.108;2024-03-02T05:31:16;1.00;;;1.00;;
84264;SDS011;74412;45.626;5.108;2024-03-02T05:33:43;0.75;;;0.25;;
84264;SDS011;74412;45.626;5.108;2024-03-02T05:36:09;1.00;;;1.00;;
84264;SDS011;74412;45.626;5.108;2024-03-02T05:38:36;1.00;;;1.00;;
84264;SDS011;74412;45.626;5.108;2024-03-02T05:41:03;0.00;;;0.00;;
84264;SDS011;74412;45.626;5.108;2024-03-02T05:43:30;2.00;;;1.00;;
84264;SDS011;74412;45.626;5.108;2024-03-02T05:45:57;2.75;;;0.50;;
84264;SDS011;74412;45.626;5.108;2024-03-02T05:48:25;0.00;;;0.00;;
84264;SDS011;74412;45.626;5.108;2024-03-02T05:50:51;1.00;;;1.00;;
84264;SDS011;74412;45.626;5.108;2024-03-02T05:53:18;1.00;;;1.00;;
84264;SDS011;74412;45.626;5.108;2024-03-02T05:55:44;3.00;;;1.00;;
84264;SDS011;74412;45.626;5.108;2024-03-02T05:58:12;0.50;;;0.50;;
84264;SDS011;74412;45.626;5.108;2024-03-02T06:00:50;1.50;;;1.25;;
84264;SDS011;74412;45.626;5.108;2024-03-02T06:03:17;0.00;;;0.00;;
84264;SDS011;74412;45.626;5.108;2024-03-02T06:05:45;2.00;;;1.00;;
84264;SDS011;74412;45.626;5.108;2024-03-02T06:08:14;2.00;;;1.75;;
84264;SDS011;74412;45.626;5.108;2024-03-02T06:10:40;1.25;;;1.25;;
84264;SDS011;74412;45.626;5.108;2024-03-02T06:13:14;1.00;;;1.00;;
84264;SDS011;74412;45.626;5.108;2024-03-02T06:15:40;1.75;;;1.75;;
84264;SDS011;74412;45.626;5.108;2024-03-02T06:18:07;1.00;;;1.00;;
84264;SDS011;74412;45.626;5.108;2024-03-02T06:20:34;2.00;;;2.00;;
84264;SDS011;74412;45.626;5.108;2024-03-02T06:23:03;2.00;;;2.00;;
84264;SDS011;74412;45.626;5.108;2024-03-02T06:25:33;4.00;;;1.50;;
84264;SDS011;74412;45.626;5.108;2024-03-02T06:28:00;2.00;;;2.00;;
84264;SDS011;74412;45.626;5.108;2024-03-02T06:30:34;1.25;;;1.00;;
84264;SDS011;74412;45.626;5.108;2024-03-02T06:33:00;2.00;;;2.00;;
84264;SDS011;74412;45.626;5.108;2024-03-02T06:35:28;1.50;;;1.50;;
84264;SDS011;74412;45.626;5.108;2024-03-02T06:37:55;4.50;;;2.50;;
84264;SDS011;74412;45.626;5.108;2024-03-02T06:40:23;1.50;;;1.50;;
84264;SDS011;74412;45.626;5.108;2024-03-02T06:42:50;2.25;;;2.25;;
84264;SDS011;74412;45.626;5.108;2024-03-02T06:45:16;1.75;;;1.50;;
84264;SDS011;74412;45.626;5.108;2024-03-02T06:47:49;2.00;;;2.00;;
84264;SDS011;74412;45.626;5.108;2024-03-02T06:50:15;1.00;;;1.00;;
84264;SDS011;74412;45.626;5.108;2024-03-02T06:52:45;1.75;;;1.75;;
84264;SDS011;74412;45.626;5.108;2024-03-02T06:55:20;2.00;;;1.25;;
84264;SDS011;74412;45.626;5.108;2024-03-02T06:57:51;2.00;;;2.00;;
84264;SDS011;74412;45.626;5.108;2024-03-02T07:00:27;2.00;;;2.00;;
84264;SDS011;74412;45.626;5.108;2024-03-02T07:05:49;2.00;;;2.00;;
84264;SDS011;74412;45.626;5.108;2024-03-02T07:08:16;3.00;;;1.00;;
84264;SDS011;74412;45.626;5.108;2024-03-02T07:10:44;3.00;;;2.50;;
84264;SDS011;74412;45.626;5.108;2024-03-02T07:13:12;2.00;;;2.00;;
84264;SDS011;74412;45.626;5.108;2024-03-02T07:15:39;1.50;;;1.00;;
84264;SDS011;74412;45.626;5.108;2024-03-02T07:18:24;2.50;;;2.50;;
84264;SDS011;74412;45.626;5.108;2024-03-02T07:20:51;3.00;;;2.00;;
84264;SDS011;74412;45.626;5.108;2024-03-02T07:23:18;2.00;;;2.00;;
84264;SDS011;74412;45.626;5.108;2024-03-02T07:25:46;3.00;;;2.50;;
84264;SDS011;74412;45.626;5.108;2024-03-02T07:28:13;2.00;;;2.00;;
84264;SDS011;74412;45.626;5.108;2024-03-02T07:30:40;3.50;;;2.00;;
84264;SDS011;74412;45.626;5.108;2024-03-02T07:33:06;2.00;;;2.00;;
84264;SDS011;74412;45.626;5.108;2024-03-02T07:35:33;4.25;;;2.75;;
84264;SDS011;74412;45.626;5.108;2024-03-02T07:38:00;1.75;;;1.00;;
84264;SDS011;74412;45.626;5.108;2024-03-02T07:40:26;3.00;;;2.00;;
84264;SDS011;74412;45.626;5.108;2024-03-02T07:42:54;2.00;;;2.00;;
84264;SDS011;74412;45.626;5.108;2024-03-02T07:45:21;1.75;;;1.75;;
84264;SDS011;74412;45.626;5.108;2024-03-02T07:47:48;4.75;;;4.50;;
84264;SDS011;74412;45.626;5.108;2024-03-02T07:50:15;3.75;;;3.00;;
84264;SDS011;74412;45.626;5.108;2024-03-02T07:52:41;3.00;;;1.75;;
84264;SDS011;74412;45.626;5.108;2024-03-02T07:55:08;1.00;;;1.00;;
84264;SDS011;74412;45.626;5.108;2024-03-02T07:57:35;3.00;;;1.75;;
84264;SDS011;74412;45.626;5.108;2024-03-02T08:00:03;2.00;;;1.50;;
84264;SDS011;74412;45.626;5.108;2024-03-02T08:02:30;2.00;;;2.00;;
84264;SDS011;74412;45.626;5.108;2024-03-02T08:04:57;2.00;;;2.00;;
84264;SDS011;74412;45.626;5.108;2024-03-02T08:07:23;3.50;;;2.00;;
84264;SDS011;74412;45.626;5.108;2024-03-02T08:09:50;3.25;;;2.00;;
84264;SDS011;74412;45.626;5.108;2024-03-02T08:12:17;3.00;;;1.00;;
84264;SDS011;74412;45.626;5.108;2024-03-02T08:14:44;2.50;;;2.50;;
84264;SDS011;74412;45.626;5.108;2024-03-02T08:17:12;2.00;;;2.00;;
84264;SDS011;74412;45.626;5.108;2024-03-02T08:19:39;1.00;;;1.00;;
84264;SDS011;74412;45.626;5.108;2024-03-02T08:22:06;3.50;;;3.50;;
84264;SDS011;74412;45.626;5.108;2024-03-02T08:24:33;1.00;;;1.00;;
84264;SDS011;74412;45.626;5.108;2024-03-02T08:27:00;2.00;;;2.00;;
84264;SDS011;74412;45.626;5.108;2024-03-02T08:29:27;3.00;;;2.00;;
84264;SDS011;74412;45.626;5.108;2024-03-02T08:31:54;1.00;;;1.00;;
84264;SDS011;74412;45.626;5.108;2024-03-02T08:34:22;1.50;;;1.00;;
84264;SDS011;74412;45.626;5.108;2024-03-02T08:36:48;2.00;;;2.00;;
84264;SDS011;74412;45.626;5.108;2024-03-02T08:39:15;2.25;;;1.25;;
84264;SDS011;74412;45.626;5.108;2024-03-02T08:41:42;2.00;;;2.00;;
84264;SDS011;74412;45.626;5.108;2024-03-02T08:44:10;2.00;;;1.25;;
84264;SDS011;74412;45.626;5.108;2024-03-02T08:46:38;2.00;;;1.00;;
84264;SDS011;74412;45.626;5.108;2024-03-02T08:49:05;2.75;;;2.00;;
84264;SDS011;74412;45.626;5.108;2024-03-02T08:51:33;3.00;;;2.25;;
84264;SDS011;74412;45.626;5.108;2024-03-02T08:54:00;2.25;;;1.00;;
84264;SDS011;74412;45.626;5.108;2024-03-02T08:56:26;2.00;;;2.00;;
84264;SDS011;74412;45.626;5.108;2024-03-02T08:58:53;2.00;;;2.00;;
84264;SDS011;74412;45.626;5.108;2024-03-02T09:01:21;3.00;;;3.00;;
84264;SDS011;74412;45.626;5.108;2024-03-02T09:03:48;5.00;;;2.25;;
84264;SDS011;74412;45.626;5.108;2024-03-02T09:06:15;1.00;;;1.00;;
84264;SDS011;74412;45.626;5.108;2024-03-02T09:08:44;1.00;;;1.00;;
84264;SDS011;74412;45.626;5.108;2024-03-02T09:11:10;1.75;;;1.50;;
84264;SDS011;74412;45.626;5.108;2024-03-02T09:13:37;1.00;;;1.00;;
84264;SDS011;74412;45.626;5.108;2024-03-02T09:16:04;1.00;;;1.00;;
84264;SDS011;74412;45.626;5.108;2024-03-02T09:18:31;3.50;;;2.00;;
84264;SDS011;74412;45.626;5.108;2024-03-02T09:20:58;1.75;;;1.00;;
84264;SDS011;74412;45.626;5.108;2024-03-02T09:23:24;1.00;;;1.00;;
84264;SDS011;74412;45.626;5.108;2024-03-02T09:25:52;1.00;;;1.00;;
84264;SDS011;74412;45.626;5.108;2024-03-02T09:28:19;3.00;;;3.00;;
84264;SDS011;74412;45.626;5.108;2024-03-02T09:30:46;1.75;;;1.00;;
84264;SDS011;74412;45.626;5.108;2024-03-02T09:33:12;2.25;;;2.25;;
84264;SDS011;74412;45.626;5.108;2024-03-02T09:35:39;4.00;;;2.00;;
84264;SDS011;74412;45.626;5.108;2024-03-02T09:38:05;1.75;;;1.75;;
84264;SDS011;74412;45.626;5.108;2024-03-02T09:40:32;1.75;;;1.75;;
84264;SDS011;74412;45.626;5.108;2024-03-02T09:43:00;3.00;;;2.00;;
84264;SDS011;74412;45.626;5.108;2024-03-02T09:45:28;1.75;;;1.25;;
84264;SDS011;74412;45.626;5.108;2024-03-02T09:47:56;1.00;;;1.00;;
84264;SDS011;74412;45.626;5.108;2024-03-02T09:50:23;1.75;;;1.75;;
84264;SDS011;74412;45.626;5.108;2024-03-02T09:52:49;3.50;;;3.00;;
84264;SDS011;74412;45.626;5.108;2024-03-02T09:55:16;1.75;;;1.75;;
84264;SDS011;74412;45.626;5.108;2024-03-02T09:57:43;1.25;;;1.25;;
84264;SDS011;74412;45.626;5.108;2024-03-02T10:00:13;1.75;;;1.50;;
84264;SDS011;74412;45.626;5.108;2024-03-02T10:02:40;0.50;;;0.50;;
84264;SDS011;74412;45.626;5.108;2024-03-02T10:05:07;2.00;;;2.00;;
84264;SDS011;74412;45.626;5.108;2024-03-02T10:07:34;1.00;;;1.00;;
84264;SDS011;74412;45.626;5.108;2024-03-02T10:10:11;6.00;;;4.75;;
84264;SDS011;74412;45.626;5.108;2024-03-02T10:12:39;3.00;;;3.00;;
84264;SDS011;74412;45.626;5.108;2024-03-02T10:15:06;1.00;;;1.00;;
84264;SDS011;74412;45.626;5.108;2024-03-02T10:17:36;0.75;;;0.75;;
84264;SDS011;74412;45.626;5.108;2024-03-02T10:20:21;1.50;;;1.50;;
84264;SDS011;74412;45.626;5.108;2024-03-02T10:22:49;3.00;;;3.00;;
84264;SDS011;74412;45.626;5.108;2024-03-02T10:25:27;1.75;;;1.75;;
84264;SDS011;74412;45.626;5.108;2024-03-02T10:27:56;1.50;;;1.25;;
84264;SDS011;74412;45.626;5.108;2024-03-02T10:30:24;0.50;;;0.50;;
84264;SDS011;74412;45.626;5.108;2024-03-02T10:32:52;1.00;;;1.00;;
84264;SDS011;74412;45.626;5.108;2024-03-02T10:35:19;1.00;;;1.00;;
84264;SDS011;74412;45.626;5.108;2024-03-02T10:37:47;1.50;;;1.25;;
84264;SDS011;74412;45.626;5.108;2024-03-02T10:40:14;0.75;;;0.75;;
84264;SDS011;74412;45.626;5.108;2024-03-02T10:42:41;1.25;;;0.75;;
84264;SDS011;74412;45.626;5.108;2024-03-02T10:45:08;1.50;;;0.75;;
84264;SDS011;74412;45.626;5.108;2024-03-02T10:47:36;0.75;;;0.75;;
84264;SDS011;74412;45.626;5.108;2024-03-02T10:50:06;0.75;;;0.75;;
84264;SDS011;74412;45.626;5.108;2024-03-02T10:52:34;0.75;;;0.75;;
84264;SDS011;74412;45.626;5.108;2024-03-02T10:55:00;1.00;;;1.00;;
84264;SDS011;74412;45.626;5.108;2024-03-02T10:57:31;1.25;;;1.25;;
84264;SDS011;74412;45.626;5.108;2024-03-02T11:00:06;1.00;;;1.00;;
84264;SDS011;74412;45.626;5.108;2024-03-02T11:02:40;0.50;;;0.00;;
84264;SDS011;74412;45.626;5.108;2024-03-02T11:05:13;1.75;;;1.00;;
84264;SDS011;74412;45.626;5.108;2024-03-02T11:07:48;0.25;;;0.25;;
84264;SDS011;74412;45.626;5.108;2024-03-02T11:10:15;0.00;;;0.00;;
84264;SDS011;74412;45.626;5.108;2024-03-02T11:12:44;1.00;;;1.00;;
84264;SDS011;74412;45.626;5.108;2024-03-02T11:15:19;0.50;;;0.50;;
84264;SDS011;74412;45.626;5.108;2024-03-02T11:17:51;1.00;;;1.00;;
84264;SDS011;74412;45.626;5.108;2024-03-02T11:20:20;0.75;;;0.00;;
84264;SDS011;74412;45.626;5.108;2024-03-02T11:22:48;2.00;;;1.00;;
84264;SDS011;74412;45.626;5.108;2024-03-02T11:25:24;0.00;;;0.00;;
84264;SDS011;74412;45.626;5.108;2024-03-02T11:28:01;2.25;;;2.25;;
84264;SDS011;74412;45.626;5.108;2024-03-02T11:30:50;0.00;;;0.00;;
84264;SDS011;74412;45.626;5.108;2024-03-02T11:33:23;0.00;;;0.00;;
84264;SDS011;74412;45.626;5.108;2024-03-02T11:35:53;1.00;;;1.00;;
84264;SDS011;74412;45.626;5.108;2024-03-02T11:38:22;0.00;;;0.00;;
84264;SDS011;74412;45.626;5.108;2024-03-02T11:40:51;0.75;;;0.00;;
84264;SDS011;74412;45.626;5.108;2024-03-02T11:43:18;0.75;;;0.50;;
84264;SDS011;74412;45.626;5.108;2024-03-02T11:45:45;0.00;;;0.00;;
84264;SDS011;74412;45.626;5.108;2024-03-02T11:48:13;0.00;;;0.00;;
84264;SDS011;74412;45.626;5.108;2024-03-02T11:50:41;0.00;;;0.00;;
84264;SDS011;74412;45.626;5.108;2024-03-02T11:53:13;0.75;;;0.50;;
84264;SDS011;74412;45.626;5.108;2024-03-02T11:55:40;0.00;;;0.00;;
84264;SDS011;74412;45.626;5.108;2024-03-02T11:58:11;0.00;;;0.00;;
84264;SDS011;74412;45.626;5.108;2024-03-02T12:00:38;0.75;;;0.75;;
84264;SDS011;74412;45.626;5.108;2024-03-02T12:03:05;0.00;;;0.00;;
84264;SDS011;74412;45.626;5.108;2024-03-02T12:05:33;0.00;;;0.00;;
84264;SDS011;74412;45.626;5.108;2024-03-02T12:08:01;0.50;;;0.50;;
84264;SDS011;74412;45.626;5.108;2024-03-02T12:10:31;0.00;;;0.00;;
84264;SDS011;74412;45.626;5.108;2024-03-02T12:12:57;1.25;;;0.00;;
84264;SDS011;74412;45.626;5.108;2024-03-02T12:15:25;0.25;;;0.25;;
84264;SDS011;74412;45.626;5.108;2024-03-02T12:17:53;2.00;;;0.50;;
84264;SDS011;74412;45.626;5.108;2024-03-02T12:20:20;1.25;;;1.00;;
84264;SDS011;74412;45.626;5.108;2024-03-02T12:22:48;0.00;;;0.00;;
84264;SDS011;74412;45.626;5.108;2024-03-02T12:25:15;2.00;;;0.00;;
84264;SDS011;74412;45.626;5.108;2024-03-02T12:27:44;0.00;;;0.00;;
84264;SDS011;74412;45.626;5.108;2024-03-02T12:30:11;0.00;;;0.00;;
84264;SDS011;74412;45.626;5.108;2024-03-02T12:32:39;0.00;;;0.00;;
84264;SDS011;74412;45.626;5.108;2024-03-02T12:35:06;0.00;;;0.00;;
84264;SDS011;74412;45.626;5.108;2024-03-02T12:37:37;1.00;;;1.00;;
84264;SDS011;74412;45.626;5.108;2024-03-02T12:40:09;1.75;;;0.00;;
84264;SDS011;74412;45.626;5.108;2024-03-02T12:42:36;0.00;;;0.00;;
84264;SDS011;74412;45.626;5.108;2024-03-02T12:45:05;0.25;;;0.25;;
84264;SDS011;74412;45.626;5.108;2024-03-02T12:47:32;0.50;;;0.50;;
84264;SDS011;74412;45.626;5.108;2024-03-02T12:49:59;0.25;;;0.25;;
84264;SDS011;74412;45.626;5.108;2024-03-02T12:52:26;0.00;;;0.00;;
84264;SDS011;74412;45.626;5.108;2024-03-02T12:54:53;0.75;;;0.75;;
84264;SDS011;74412;45.626;5.108;2024-03-02T12:57:24;0.00;;;0.00;;
84264;SDS011;74412;45.626;5.108;2024-03-02T12:59:52;1.50;;;0.50;;
84264;SDS011;74412;45.626;5.108;2024-03-02T13:02:27;1.00;;;1.00;;
84264;SDS011;74412;45.626;5.108;2024-03-02T13:04:54;2.00;;;1.00;;
84264;SDS011;74412;45.626;5.108;2024-03-02T13:07:21;0.75;;;0.75;;
84264;SDS011;74412;45.626;5.108;2024-03-02T13:09:49;0.00;;;0.00;;
84264;SDS011;74412;45.626;5.108;2024-03-02T13:12:16;1.00;;;1.00;;
84264;SDS011;74412;45.626;5.108;2024-03-02T13:14:43;0.00;;;0.00;;
84264;SDS011;74412;45.626;5.108;2024-03-02T13:17:10;0.25;;;0.00;;
84264;SDS011;74412;45.626;5.108;2024-03-02T13:19:40;0.00;;;0.00;;
84264;SDS011;74412;45.626;5.108;2024-03-02T13:22:10;2.00;;;0.25;;
84264;SDS011;74412;45.626;5.108;2024-03-02T13:24:36;1.00;;;1.00;;
84264;SDS011;74412;45.626;5.108;2024-03-02T13:27:03;0.25;;;0.25;;
84264;SDS011;74412;45.626;5.108;2024-03-02T13:29:30;1.00;;;1.00;;
84264;SDS011;74412;45.626;5.108;2024-03-02T13:31:57;0.25;;;0.25;;
84264;SDS011;74412;45.626;5.108;2024-03-02T13:34:23;1.00;;;0.25;;
84264;SDS011;74412;45.626;5.108;2024-03-02T13:36:51;0.75;;;0.75;;
84264;SDS011;74412;45.626;5.108;2024-03-02T13:39:18;1.00;;;1.00;;
84264;SDS011;74412;45.626;5.108;2024-03-02T13:41:45;1.00;;;0.00;;
84264;SDS011;74412;45.626;5.108;2024-03-02T13:44:17;0.25;;;0.00;;
84264;SDS011;74412;45.626;5.108;2024-03-02T13:46:44;4.00;;;1.25;;
84264;SDS011;74412;45.626;5.108;2024-03-02T13:49:11;1.50;;;0.00;;
84264;SDS011;74412;45.626;5.108;2024-03-02T13:51:37;1.00;;;1.00;;
84264;SDS011;74412;45.626;5.108;2024-03-02T13:54:06;3.00;;;1.00;;
84264;SDS011;74412;45.626;5.108;2024-03-02T13:56:32;1.00;;;1.00;;
84264;SDS011;74412;45.626;5.108;2024-03-02T13:59:00;1.00;;;1.00;;
84264;SDS011;74412;45.626;5.108;2024-03-02T14:01:27;2.00;;;2.00;;
84264;SDS011;74412;45.626;5.108;2024-03-02T14:03:54;3.50;;;1.25;;
84264;SDS011;74412;45.626;5.108;2024-03-02T14:06:21;0.50;;;0.50;;
84264;SDS011;74412;45.626;5.108;2024-03-02T14:08:47;1.00;;;1.00;;
84264;SDS011;74412;45.626;5.108;2024-03-02T14:11:15;0.50;;;0.50;;
84264;SDS011;74412;45.626;5.108;2024-03-02T14:13:42;2.00;;;1.00;;
84264;SDS011;74412;45.626;5.108;2024-03-02T14:16:13;2.50;;;1.00;;
84264;SDS011;74412;45.626;5.108;2024-03-02T14:18:40;0.75;;;0.75;;
84264;SDS011;74412;45.626;5.108;2024-03-02T14:21:07;1.00;;;1.00;;
84264;SDS011;74412;45.626;5.108;2024-03-02T14:23:34;2.25;;;1.25;;
84264;SDS011;74412;45.626;5.108;2024-03-02T14:26:00;1.25;;;1.00;;
84264;SDS011;74412;45.626;5.108;2024-03-02T14:28:28;2.50;;;2.00;;
84264;SDS011;74412;45.626;5.108;2024-03-02T14:30:55;0.50;;;0.50;;
84264;SDS011;74412;45.626;5.108;2024-03-02T14:33:22;1.50;;;1.50;;
84264;SDS011;74412;45.626;5.108;2024-03-02T14:35:48;1.75;;;1.75;;
84264;SDS011;74412;45.626;5.108;2024-03-02T14:38:15;1.50;;;1.50;;
84264;SDS011;74412;45.626;5.108;2024-03-02T14:40:42;3.00;;;1.50;;
84264;SDS011;74412;45.626;5.108;2024-03-02T14:43:08;1.00;;;1.00;;
84264;SDS011;74412;45.626;5.108;2024-03-02T14:45:36;2.00;;;0.00;;
84264;SDS011;74412;45.626;5.108;2024-03-02T14:48:03;2.00;;;1.25;;
84264;SDS011;74412;45.626;5.108;2024-03-02T14:50:31;2.00;;;2.00;;
84264;SDS011;74412;45.626;5.108;2024-03-02T14:52:58;1.75;;;1.25;;
84264;SDS011;74412;45.626;5.108;2024-03-02T14:55:26;3.00;;;1.00;;
84264;SDS011;74412;45.626;5.108;2024-03-02T14:57:53;2.50;;;2.00;;
84264;SDS011;74412;45.626;5.108;2024-03-02T15:00:19;1.00;;;1.00;;